Time;durP1;ratioP1;P1;durP2;ratioP2;P2;SDS_P1;SDS_P2;PMS_P1;PMS_P2;Temp;Humidity;BMP_temperature;BMP_pressure;BME280_temperature;BME280_humidity;BME280_pressure;Samples;Min_cycle;Max_cycle;Signal;HPM_P1;HPM_P2
2023/03/16 00:01:15;;;;;;;11.50;4.00;;;0.50;15.50;;;;;;5014383;28;20216;-48
2023/03/16 00:03:40;;;;;;;20.73;4.10;;;0.50;1.00;;;;;;5014670;28;20189;-48
2023/03/16 00:06:06;;;;;;;14.40;4.40;;;0.40;16.20;;;;;;5013603;28;20187;-48
2023/03/16 00:08:32;;;;;;;13.23;3.93;;;0.40;89.30;;;;;;5013988;28;20216;-48
2023/03/16 00:10:58;;;;;;;7.70;4.00;;;0.40;99.90;;;;;;5017303;28;20245;-48
2023/03/16 00:13:24;;;;;;;13.43;4.10;;;0.40;99.90;;;;;;5017725;28;20191;-49
2023/03/16 00:15:58;;;;;;;16.97;3.70;;;0.50;99.90;;;;;;5018658;28;20192;-48
2023/03/16 00:18:26;;;;;;;6.30;3.00;;;0.50;99.90;;;;;;5022662;28;21061;-49
2023/03/16 00:21:04;;;;;;;9.73;3.37;;;0.40;99.90;;;;;;5020926;28;20525;-50
2023/03/16 00:23:34;;;;;;;12.93;3.70;;;0.50;99.90;;;;;;5017807;28;20521;-49
2023/03/16 00:26:02;;;;;;;14.87;4.20;;;0.50;99.90;;;;;;5021755;28;23815;-47
2023/03/16 00:28:33;;;;;;;16.77;3.80;;;0.50;99.90;;;;;;5021849;28;20470;-49
2023/03/16 00:31:03;;;;;;;11.57;3.60;;;0.40;99.90;;;;;;5017695;28;20443;-48
2023/03/16 00:33:29;;;;;;;10.20;3.57;;;0.40;99.90;;;;;;5025178;28;20437;-48
2023/03/16 00:36:01;;;;;;;10.23;3.70;;;0.40;99.90;;;;;;5017575;28;20461;-48
2023/03/16 00:38:30;;;;;;;14.37;4.10;;;0.40;99.90;;;;;;5017845;28;20195;-48
2023/03/16 00:40:55;;;;;;;12.23;4.30;;;0.30;99.90;;;;;;5020658;28;20955;-48
2023/03/16 00:43:21;;;;;;;9.00;3.73;;;0.30;99.90;;;;;;5017459;28;20442;-49
2023/03/16 00:45:46;;;;;;;11.63;4.00;;;0.30;99.90;;;;;;5017307;28;20228;-49
2023/03/16 00:48:12;;;;;;;11.23;4.63;;;0.30;99.90;;;;;;5017620;28;20680;-48
2023/03/16 00:50:38;;;;;;;13.00;4.37;;;0.20;99.90;;;;;;5017044;28;20245;-48
2023/03/16 00:53:05;;;;;;;13.77;4.00;;;0.20;99.90;;;;;;5017140;28;20196;-48
2023/03/16 00:55:31;;;;;;;11.53;3.63;;;0.20;1.00;;;;;;5020656;28;20448;-48
2023/03/16 00:57:56;;;;;;;17.77;4.20;;;0.20;1.00;;;;;;5021354;28;20441;-48
2023/03/16 01:00:26;;;;;;;10.03;4.30;;;0.10;1.00;;;;;;5020652;28;20469;-50
2023/03/16 01:02:51;;;;;;;10.60;3.70;;;0.10;1.00;;;;;;5020741;28;20639;-48
2023/03/16 01:05:17;;;;;;;9.53;3.87;;;0.10;1.00;;;;;;5020894;28;20453;-48
2023/03/16 01:07:44;;;;;;;16.20;4.90;;;0.10;1.00;;;;;;5020663;28;20199;-48
2023/03/16 01:10:10;;;;;;;8.83;3.70;;;0.10;1.00;;;;;;5016645;28;20457;-48
2023/03/16 01:12:36;;;;;;;18.57;4.33;;;0.00;1.00;;;;;;5021097;28;20438;-48
2023/03/16 01:15:01;;;;;;;20.23;4.50;;;0.00;1.00;;;;;;5015858;28;20799;-48
2023/03/16 01:17:27;;;;;;;10.20;4.33;;;0.00;1.00;;;;;;5016454;28;20226;-48
2023/03/16 01:19:52;;;;;;;12.17;4.10;;;0.00;1.00;;;;;;5016981;28;20241;-49
2023/03/16 01:22:18;;;;;;;16.30;4.20;;;-0.10;1.00;;;;;;5015208;28;20198;-48
2023/03/16 01:24:45;;;;;;;17.93;4.63;;;-0.10;89.50;;;;;;5016650;28;20283;-48
2023/03/16 01:27:12;;;;;;;11.87;3.50;;;-0.10;99.90;;;;;;5016268;28;20226;-48
2023/03/16 01:29:38;;;;;;;11.47;3.73;;;-0.20;99.90;;;;;;5015783;28;20920;-48
2023/03/16 01:32:05;;;;;;;12.00;4.03;;;-0.20;99.90;;;;;;5016587;28;20448;-48
2023/03/16 01:34:32;;;;;;;18.93;4.53;;;-0.20;1.00;;;;;;5021939;28;20447;-48
2023/03/16 01:36:59;;;;;;;11.70;4.30;;;-0.20;1.00;;;;;;5022958;28;20450;-48
2023/03/16 01:39:26;;;;;;;11.23;4.50;;;-0.20;1.00;;;;;;5020114;28;20442;-48
2023/03/16 01:41:52;;;;;;;12.30;4.63;;;-0.30;60.60;;;;;;5016191;28;20766;-49
2023/03/16 01:44:29;;;;;;;19.67;4.70;;;-0.30;99.90;;;;;;5023081;28;20489;-47
2023/03/16 01:46:55;;;;;;;20.47;5.60;;;-0.30;1.00;;;;;;5016008;28;20772;-48
2023/03/16 01:49:25;;;;;;;13.97;3.83;;;-0.30;1.00;;;;;;5020466;28;20481;-48
2023/03/16 01:52:11;;;;;;;8.17;4.37;;;-0.30;87.50;;;;;;5020430;28;20916;-49
2023/03/16 01:55:02;;;;;;;12.53;4.63;;;-0.30;99.90;;;;;;5018273;28;20946;-47
2023/03/16 01:57:35;;;;;;;13.90;4.70;;;-0.30;99.90;;;;;;5019727;28;20451;-48
2023/03/16 02:00:17;;;;;;;20.33;4.53;;;-0.30;99.90;;;;;;5016984;28;20481;-48
2023/03/16 02:02:47;;;;;;;10.93;4.90;;;-0.30;1.00;;;;;;5017928;28;20442;-48
2023/03/16 02:05:15;;;;;;;13.30;5.00;;;-0.30;65.10;;;;;;5018129;28;20517;-48
2023/03/16 02:07:46;;;;;;;13.73;5.50;;;-0.30;99.90;;;;;;5017256;28;20439;-48
2023/03/16 02:10:15;;;;;;;13.67;5.70;;;-0.40;1.00;;;;;;5017214;28;20462;-49
2023/03/16 02:12:42;;;;;;;16.70;5.47;;;-0.40;1.00;;;;;;5020396;28;20473;-47
2023/03/16 02:15:09;;;;;;;20.23;5.90;;;-0.40;1.00;;;;;;5018273;28;20443;-47
2023/03/16 02:17:35;;;;;;;13.27;5.97;;;-0.40;93.10;;;;;;5021380;28;20942;-48
2023/03/16 02:20:26;;;;;;;18.47;5.90;;;-0.40;1.00;;;;;;5025738;28;20466;-48
2023/03/16 02:22:53;;;;;;;15.87;6.07;;;-0.40;99.90;;;;;;5017344;28;20475;-48
2023/03/16 02:25:35;;;;;;;16.53;6.67;;;-0.40;1.00;;;;;;5017708;28;20806;-48
2023/03/16 02:28:17;;;;;;;19.00;6.90;;;-0.40;99.90;;;;;;5018280;28;20867;-47
2023/03/16 02:30:43;;;;;;;18.63;6.50;;;-0.40;1.00;;;;;;5017224;28;20443;-48
2023/03/16 02:33:09;;;;;;;18.97;8.87;;;-0.40;1.00;;;;;;5018416;28;20446;-47
2023/03/16 02:35:35;;;;;;;15.43;6.53;;;-0.40;99.90;;;;;;5018151;28;20184;-48
2023/03/16 02:38:00;;;;;;;23.10;7.20;;;-0.40;1.00;;;;;;5016962;28;20962;-48
2023/03/16 02:40:30;;;;;;;26.47;6.80;;;-0.30;99.90;;;;;;5017349;28;20623;-47
2023/03/16 02:43:04;;;;;;;19.17;7.30;;;-0.30;99.90;;;;;;5017398;28;20188;-48
2023/03/16 02:45:38;;;;;;;11.53;6.30;;;-0.30;1.00;;;;;;5016319;28;20482;-48
2023/03/16 02:48:08;;;;;;;21.80;7.30;;;-0.30;99.90;;;;;;5017191;28;20454;-48
2023/03/16 02:50:33;;;;;;;15.20;7.30;;;-0.30;57.80;;;;;;5020458;28;20478;-47
2023/03/16 02:52:59;;;;;;;10.20;6.00;;;-0.30;1.00;;;;;;5020891;28;20467;-48
2023/03/16 02:55:25;;;;;;;19.03;7.00;;;-0.30;1.00;;;;;;5016345;28;20187;-48
2023/03/16 02:57:51;;;;;;;18.87;7.87;;;-0.20;1.00;;;;;;5016637;28;20192;-47
2023/03/16 03:00:18;;;;;;;9.83;5.70;;;-0.20;1.00;;;;;;5016784;28;20195;-47
2023/03/16 03:02:44;;;;;;;15.23;6.57;;;-0.10;99.90;;;;;;5016850;28;20436;-48
2023/03/16 03:05:11;;;;;;;11.23;6.00;;;-0.10;1.00;;;;;;5018328;28;20544;-47
2023/03/16 03:07:37;;;;;;;19.33;6.90;;;-0.20;1.00;;;;;;5017779;28;20829;-49
2023/03/16 03:10:04;;;;;;;15.83;6.80;;;-0.20;1.00;;;;;;5016607;28;20501;-48
2023/03/16 03:12:31;;;;;;;19.23;6.57;;;-0.20;1.00;;;;;;5020981;28;20438;-48
2023/03/16 03:14:57;;;;;;;19.73;7.70;;;-0.20;99.90;;;;;;5016989;28;20522;-48
2023/03/16 03:17:28;;;;;;;18.20;5.93;;;-0.20;99.90;;;;;;5016253;28;20449;-48
2023/03/16 03:19:55;;;;;;;14.33;5.63;;;-0.10;99.90;;;;;;5016463;28;20442;-48
2023/03/16 03:22:21;;;;;;;13.23;5.77;;;-0.10;99.90;;;;;;5016475;28;20443;-48
2023/03/16 03:24:46;;;;;;;10.67;5.50;;;0.00;99.90;;;;;;5016355;28;21055;-48
2023/03/16 03:27:12;;;;;;;13.97;5.70;;;0.00;99.90;;;;;;5016414;28;20184;-48
2023/03/16 03:29:38;;;;;;;11.20;5.23;;;-0.10;99.90;;;;;;5025556;28;20321;-48
2023/03/16 03:32:04;;;;;;;11.57;5.10;;;-0.10;99.90;;;;;;5019166;28;20498;-48
2023/03/16 03:34:30;;;;;;;16.23;4.93;;;-0.10;1.00;;;;;;5015875;28;20195;-47
2023/03/16 03:36:57;;;;;;;11.70;4.93;;;-0.20;99.90;;;;;;5016581;28;20450;-48
2023/03/16 03:39:23;;;;;;;10.30;4.97;;;-0.10;99.90;;;;;;5015655;28;20520;-48
2023/03/16 03:41:49;;;;;;;15.33;5.03;;;-0.10;99.90;;;;;;5015688;28;20457;-48
2023/03/16 03:44:15;;;;;;;10.77;4.83;;;-0.20;1.00;;;;;;5017480;28;20483;-48
2023/03/16 03:46:40;;;;;;;12.03;4.70;;;-0.20;1.00;;;;;;5026808;28;20496;-47
2023/03/16 03:49:06;;;;;;;14.73;4.80;;;-0.20;1.00;;;;;;5021065;28;20662;-48
2023/03/16 03:51:33;;;;;;;18.17;4.93;;;-0.30;1.00;;;;;;5019644;28;20294;-48
2023/03/16 03:53:59;;;;;;;15.73;4.43;;;-0.30;99.90;;;;;;5019894;28;20184;-48
2023/03/16 03:56:25;;;;;;;12.90;4.77;;;-0.30;99.90;;;;;;5020243;28;20434;-47
2023/03/16 03:58:51;;;;;;;9.33;3.80;;;-0.30;99.90;;;;;;5019611;28;20195;-48
2023/03/16 04:01:17;;;;;;;10.73;4.93;;;-0.30;99.90;;;;;;5021980;28;21003;-48
2023/03/16 04:03:43;;;;;;;9.10;4.47;;;-0.30;99.90;;;;;;5019757;28;20195;-48
2023/03/16 04:06:09;;;;;;;7.60;4.33;;;-0.30;99.90;;;;;;5024065;28;20191;-48
2023/03/16 04:08:35;;;;;;;13.37;4.23;;;-0.30;99.90;;;;;;5019730;28;20466;-48
2023/03/16 04:11:01;;;;;;;9.70;4.60;;;-0.30;99.90;;;;;;5025037;28;21123;-48
2023/03/16 04:13:26;;;;;;;10.37;4.23;;;-0.30;62.90;;;;;;5026155;28;20191;-48
2023/03/16 04:15:56;;;;;;;15.40;4.90;;;-0.30;1.00;;;;;;5023375;28;20193;-49
2023/03/16 04:18:22;;;;;;;16.33;4.63;;;-0.20;5.80;;;;;;5024213;28;20234;-48
2023/03/16 04:20:48;;;;;;;6.37;4.27;;;-0.20;1.00;;;;;;5026054;28;20478;-48
2023/03/16 04:23:15;;;;;;;8.00;4.53;;;-0.20;99.90;;;;;;5018227;28;20183;-47
2023/03/16 04:25:41;;;;;;;9.33;4.33;;;-0.20;1.00;;;;;;5022927;28;20184;-48
2023/03/16 04:28:07;;;;;;;16.83;4.00;;;-0.20;1.00;;;;;;5024763;28;20934;-48
2023/03/16 04:30:33;;;;;;;10.20;4.07;;;-0.30;1.00;;;;;;5025742;28;20446;-48
2023/03/16 04:32:59;;;;;;;10.17;4.20;;;-0.30;99.90;;;;;;5019530;28;20198;-48
2023/03/16 04:35:25;;;;;;;12.70;4.30;;;-0.20;99.90;;;;;;5023350;28;20560;-48
2023/03/16 04:37:50;;;;;;;10.13;4.70;;;-0.20;53.10;;;;;;5019298;28;20193;-48
2023/03/16 04:40:16;;;;;;;15.10;4.97;;;-0.30;1.00;;;;;;5019349;28;20194;-48
2023/03/16 04:42:46;;;;;;;12.73;4.30;;;-0.30;1.00;;;;;;5022835;28;20184;-48
2023/03/16 04:45:12;;;;;;;9.50;4.57;;;-0.30;1.00;;;;;;5024474;28;20239;-48
2023/03/16 04:47:39;;;;;;;8.27;4.30;;;-0.30;1.00;;;;;;5024230;28;20807;-48
2023/03/16 04:50:05;;;;;;;10.50;4.53;;;-0.30;1.00;;;;;;5022870;28;20485;-48
2023/03/16 04:52:31;;;;;;;9.03;4.73;;;-0.30;1.00;;;;;;5022815;28;20565;-48
2023/03/16 04:54:57;;;;;;;7.40;3.93;;;-0.40;1.00;;;;;;5026649;28;21032;-49
2023/03/16 04:57:22;;;;;;;12.90;4.20;;;-0.40;1.00;;;;;;5022708;28;20188;-48
2023/03/16 04:59:48;;;;;;;14.47;4.60;;;-0.40;1.00;;;;;;5027299;28;20218;-48
2023/03/16 05:02:13;;;;;;;13.90;4.57;;;-0.30;99.90;;;;;;5022653;28;20679;-48
2023/03/16 05:04:39;;;;;;;6.83;4.70;;;-0.30;99.90;;;;;;5018494;28;20202;-48
2023/03/16 05:07:05;;;;;;;7.93;4.20;;;-0.30;99.90;;;;;;5022956;28;20191;-48
2023/03/16 05:09:31;;;;;;;7.23;4.50;;;-0.20;99.90;;;;;;5025475;28;20222;-48
2023/03/16 05:11:57;;;;;;;6.40;3.77;;;-0.20;99.90;;;;;;5019554;28;20188;-48
2023/03/16 05:14:23;;;;;;;10.60;4.20;;;-0.20;99.90;;;;;;5018077;28;20435;-48
2023/03/16 05:16:48;;;;;;;11.10;4.83;;;-0.10;24.00;;;;;;5023039;28;20449;-48
2023/03/16 05:19:14;;;;;;;15.90;6.63;;;-0.10;1.00;;;;;;5018907;28;20194;-48
2023/03/16 05:21:39;;;;;;;12.03;3.87;;;0.00;1.00;;;;;;5018368;28;20613;-49
2023/03/16 05:24:05;;;;;;;8.47;3.63;;;0.00;1.00;;;;;;5021967;28;20188;-50
2023/03/16 05:26:31;;;;;;;17.47;4.10;;;0.20;99.90;;;;;;5022443;28;20219;-49
2023/03/16 05:28:57;;;;;;;6.83;4.17;;;0.30;99.90;;;;;;5026512;28;20218;-49
2023/03/16 05:31:25;;;;;;;8.50;3.73;;;0.30;99.90;;;;;;5022453;28;20208;-49
2023/03/16 05:33:52;;;;;;;7.90;4.00;;;0.40;99.90;;;;;;5017647;28;20442;-48
2023/03/16 05:36:18;;;;;;;6.13;3.03;;;0.30;99.90;;;;;;5022152;28;20441;-49
2023/03/16 05:38:44;;;;;;;11.40;4.33;;;0.40;99.90;;;;;;5024832;28;20457;-49
2023/03/16 05:41:10;;;;;;;9.70;3.83;;;0.40;99.90;;;;;;5020204;28;20454;-49
2023/03/16 05:43:36;;;;;;;8.20;3.80;;;0.40;99.90;;;;;;5020814;28;20791;-48
2023/03/16 05:46:02;;;;;;;8.07;4.50;;;0.40;99.90;;;;;;5021992;28;20595;-48
2023/03/16 05:48:28;;;;;;;10.43;4.00;;;0.50;99.90;;;;;;5017315;28;20793;-48
2023/03/16 05:50:54;;;;;;;7.10;4.20;;;0.60;99.90;;;;;;5021657;28;20237;-48
2023/03/16 05:53:22;;;;;;;10.20;4.40;;;0.50;99.90;;;;;;5017886;28;20188;-48
2023/03/16 05:55:52;;;;;;;9.20;3.97;;;0.60;99.90;;;;;;5018023;28;20234;-48
2023/03/16 05:58:17;;;;;;;6.60;3.97;;;0.60;99.90;;;;;;5017614;28;20446;-48
2023/03/16 06:00:43;;;;;;;9.10;4.40;;;0.60;99.90;;;;;;5021513;28;20446;-48
2023/03/16 06:03:08;;;;;;;8.87;4.40;;;0.70;99.90;;;;;;5021756;28;20195;-49
2023/03/16 06:05:34;;;;;;;11.50;4.03;;;0.80;99.90;;;;;;5022927;28;20219;-48
2023/03/16 06:08:01;;;;;;;14.10;5.07;;;0.80;99.00;;;;;;5023627;28;20203;-48
2023/03/16 06:10:27;;;;;;;12.30;5.83;;;0.90;92.20;;;;;;5021468;28;20271;-48
2023/03/16 06:12:52;;;;;;;9.43;4.10;;;0.90;79.30;;;;;;5022227;28;20597;-48
2023/03/16 06:15:18;;;;;;;10.43;5.00;;;1.00;70.40;;;;;;5020975;28;20184;-48
2023/03/16 06:17:43;;;;;;;6.93;4.20;;;1.00;63.00;;;;;;5021636;28;20214;-48
2023/03/16 06:20:12;;;;;;;11.70;4.20;;;1.00;56.90;;;;;;5021304;28;20678;-49
2023/03/16 06:22:39;;;;;;;11.70;4.27;;;1.10;67.90;;;;;;5020833;28;20222;-48
2023/03/16 06:25:06;;;;;;;7.93;4.40;;;1.20;64.10;;;;;;5017154;28;20941;-48
2023/03/16 06:27:31;;;;;;;9.60;4.53;;;1.20;47.30;;;;;;5016636;28;20493;-48
2023/03/16 06:29:57;;;;;;;9.47;4.50;;;1.30;44.60;;;;;;5017129;28;20478;-48
2023/03/16 06:32:23;;;;;;;9.33;4.47;;;1.30;40.70;;;;;;5017520;28;20612;-48
2023/03/16 06:34:48;;;;;;;10.10;5.30;;;1.30;31.50;;;;;;5016672;28;20253;-48
2023/03/16 06:37:14;;;;;;;13.70;5.20;;;1.40;50.50;;;;;;5020703;28;20198;-49
2023/03/16 06:39:40;;;;;;;14.43;4.50;;;1.50;35.10;;;;;;5024079;28;20219;-48
2023/03/16 06:42:05;;;;;;;16.43;5.40;;;1.60;38.10;;;;;;5022456;28;20180;-48
2023/03/16 06:44:31;;;;;;;11.30;4.70;;;1.70;1.00;;;;;;5024557;28;20281;-48
2023/03/16 06:46:57;;;;;;;11.97;4.47;;;1.80;1.00;;;;;;5020315;28;20192;-48
2023/03/16 06:49:22;;;;;;;8.73;4.20;;;1.80;1.00;;;;;;5020599;28;20290;-48
2023/03/16 06:51:48;;;;;;;15.10;5.23;;;1.80;1.00;;;;;;5021013;28;20773;-48
2023/03/16 06:54:14;;;;;;;8.53;4.30;;;1.80;1.00;;;;;;5021234;28;20330;-49
2023/03/16 06:56:39;;;;;;;11.30;4.40;;;1.90;1.00;;;;;;5020761;28;20185;-48
2023/03/16 06:59:05;;;;;;;11.53;4.87;;;2.00;1.00;;;;;;5016009;28;20219;-48
2023/03/16 07:01:31;;;;;;;9.40;4.67;;;2.00;1.00;;;;;;5021058;28;20189;-48
2023/03/16 07:03:56;;;;;;;11.43;5.13;;;2.00;1.00;;;;;;5016506;28;20588;-48
2023/03/16 07:06:22;;;;;;;7.77;4.77;;;2.00;1.00;;;;;;5016202;28;20567;-49
2023/03/16 07:08:47;;;;;;;11.27;4.70;;;2.10;1.00;;;;;;5016529;28;20306;-48
2023/03/16 07:11:13;;;;;;;7.97;4.50;;;2.20;1.00;;;;;;5017022;28;20184;-48
2023/03/16 07:13:39;;;;;;;9.27;4.50;;;2.30;1.00;;;;;;5018438;28;20666;-48
2023/03/16 07:16:05;;;;;;;13.20;4.73;;;2.50;1.00;;;;;;5016195;28;20242;-48
2023/03/16 07:18:31;;;;;;;13.00;5.30;;;2.60;1.00;;;;;;5015662;28;20573;-48
2023/03/16 07:20:57;;;;;;;9.57;4.57;;;2.80;1.00;;;;;;5020184;28;20525;-48
2023/03/16 07:23:23;;;;;;;9.20;4.47;;;2.80;1.00;;;;;;5016167;28;20255;-49
2023/03/16 07:25:50;;;;;;;7.80;4.17;;;3.20;1.00;;;;;;5016779;28;20199;-48
2023/03/16 07:28:17;;;;;;;13.37;4.97;;;3.60;1.00;;;;;;5016457;28;20972;-49
2023/03/16 07:30:44;;;;;;;14.43;4.50;;;4.00;1.00;;;;;;5016318;28;20798;-48
2023/03/16 07:33:10;;;;;;;23.63;5.33;;;4.20;1.00;;;;;;5015983;28;20589;-48
2023/03/16 07:35:36;;;;;;;9.70;4.27;;;4.40;1.00;;;;;;5016866;28;20449;-48
2023/03/16 07:38:02;;;;;;;9.70;4.00;;;4.50;1.00;;;;;;5015732;28;20456;-48
2023/03/16 07:40:27;;;;;;;10.73;3.50;;;4.50;1.00;;;;;;5016591;28;20529;-48
2023/03/16 07:42:53;;;;;;;9.77;4.17;;;4.30;1.00;;;;;;5016490;28;20701;-48
2023/03/16 07:45:19;;;;;;;10.20;3.50;;;4.30;1.00;;;;;;5016231;28;20318;-49
2023/03/16 07:47:44;;;;;;;6.60;3.90;;;4.40;1.00;;;;;;5015895;28;20198;-49
2023/03/16 07:50:10;;;;;;;6.90;3.27;;;4.50;1.00;;;;;;5016271;28;20302;-48
2023/03/16 07:52:36;;;;;;;11.10;3.90;;;4.80;1.00;;;;;;5016590;28;20194;-48
2023/03/16 07:55:02;;;;;;;9.70;3.87;;;5.20;1.00;;;;;;5014958;28;20437;-49
2023/03/16 07:57:28;;;;;;;7.63;3.37;;;5.60;1.00;;;;;;5015738;28;20661;-48
2023/03/16 07:59:54;;;;;;;6.83;3.20;;;5.80;1.00;;;;;;5015830;28;20457;-48
2023/03/16 08:02:23;;;;;;;5.93;3.40;;;6.10;1.00;;;;;;5016198;28;20445;-48
2023/03/16 08:04:48;;;;;;;9.17;3.27;;;6.30;1.00;;;;;;5015708;28;20551;-48
2023/03/16 08:07:14;;;;;;;7.77;3.40;;;6.60;1.00;;;;;;5019840;28;20455;-48
2023/03/16 08:09:40;;;;;;;7.53;3.80;;;6.70;1.00;;;;;;5015809;28;20219;-48
2023/03/16 08:12:07;;;;;;;9.40;4.10;;;6.60;1.00;;;;;;5016691;28;20438;-48
2023/03/16 08:14:33;;;;;;;10.47;3.97;;;6.50;1.00;;;;;;5016185;28;20497;-48
2023/03/16 08:17:02;;;;;;;10.97;4.17;;;6.50;1.00;;;;;;5015953;28;20449;-49
2023/03/16 08:19:28;;;;;;;10.00;3.77;;;6.30;1.00;;;;;;5016140;28;20191;-49
2023/03/16 08:21:54;;;;;;;8.60;4.30;;;6.40;1.00;;;;;;5016051;28;20506;-48
2023/03/16 08:24:20;;;;;;;10.30;3.67;;;6.50;1.00;;;;;;5015491;28;20934;-48
2023/03/16 08:26:46;;;;;;;6.13;3.30;;;6.90;1.00;;;;;;5015754;28;20193;-48
2023/03/16 08:29:12;;;;;;;10.77;3.50;;;7.40;1.00;;;;;;5016836;28;20485;-49
2023/03/16 08:31:37;;;;;;;9.93;3.60;;;8.00;1.00;;;;;;5019193;28;20434;-48
2023/03/16 08:34:03;;;;;;;8.10;3.47;;;8.00;1.00;;;;;;5018629;28;20936;-48
2023/03/16 08:36:29;;;;;;;12.50;4.00;;;8.10;1.00;;;;;;5019203;28;20206;-48
2023/03/16 08:38:55;;;;;;;9.70;3.77;;;8.40;1.00;;;;;;5019075;28;20190;-48
2023/03/16 08:41:21;;;;;;;6.17;3.60;;;8.40;1.00;;;;;;5018787;28;20444;-49
2023/03/16 08:43:47;;;;;;;11.40;3.93;;;8.30;1.00;;;;;;5019055;28;20258;-48
2023/03/16 08:46:14;;;;;;;9.03;3.77;;;8.60;1.00;;;;;;5019602;28;20441;-48
2023/03/16 08:48:40;;;;;;;9.93;3.20;;;8.90;1.00;;;;;;5019282;28;20492;-48
2023/03/16 08:51:06;;;;;;;10.00;3.90;;;9.30;1.00;;;;;;5019027;28;20436;-49
2023/03/16 08:53:32;;;;;;;5.03;2.70;;;9.60;1.00;;;;;;5018901;28;20449;-48
2023/03/16 08:56:06;;;;;;;8.83;3.83;;;9.90;1.00;;;;;;5018506;28;20452;-48
2023/03/16 08:58:33;;;;;;;10.33;3.10;;;10.10;1.00;;;;;;5019484;28;20198;-48
2023/03/16 09:01:04;;;;;;;10.90;3.13;;;9.80;1.00;;;;;;5018620;28;20462;-48
2023/03/16 09:03:34;;;;;;;9.67;3.80;;;9.90;1.00;;;;;;5018773;28;20461;-48
2023/03/16 09:06:01;;;;;;;5.60;3.03;;;9.80;1.00;;;;;;5018895;28;20457;-48
2023/03/16 09:08:28;;;;;;;7.17;4.20;;;10.00;1.00;;;;;;5018542;28;20878;-48
2023/03/16 09:11:06;;;;;;;6.30;3.20;;;10.10;1.00;;;;;;5023094;28;20453;-48
2023/03/16 09:13:32;;;;;;;8.67;3.27;;;10.20;1.00;;;;;;5022549;28;20444;-49
2023/03/16 09:15:58;;;;;;;13.07;3.73;;;10.00;1.00;;;;;;5022941;28;20446;-48
2023/03/16 09:18:26;;;;;;;6.47;3.10;;;9.70;1.00;;;;;;5023451;28;20437;-48
2023/03/16 09:20:57;;;;;;;9.53;3.10;;;9.60;1.00;;;;;;5025284;28;20453;-49
2023/03/16 09:23:22;;;;;;;9.93;2.90;;;9.10;1.00;;;;;;5018535;28;20435;-48
2023/03/16 09:25:48;;;;;;;6.27;3.00;;;8.80;1.00;;;;;;5017987;28;21213;-48
2023/03/16 09:28:13;;;;;;;10.43;3.07;;;8.80;1.00;;;;;;5018492;28;20202;-49
2023/03/16 09:30:39;;;;;;;5.47;2.80;;;8.90;1.00;;;;;;5018730;28;20553;-49
2023/03/16 09:33:05;;;;;;;6.40;2.83;;;9.30;1.00;;;;;;5018312;28;20183;-49
2023/03/16 09:35:31;;;;;;;6.10;2.73;;;9.20;1.00;;;;;;5018431;28;20541;-49
2023/03/16 09:37:56;;;;;;;7.13;2.97;;;9.20;1.00;;;;;;5018536;28;20195;-48
2023/03/16 09:40:27;;;;;;;9.80;3.43;;;9.30;1.00;;;;;;5017820;28;20496;-49
2023/03/16 09:43:14;;;;;;;11.40;3.57;;;9.30;1.00;;;;;;5016844;28;20292;-50
2023/03/16 09:45:43;;;;;;;8.40;2.20;;;9.20;1.00;;;;;;5017970;28;20487;-49
2023/03/16 09:48:10;;;;;;;5.67;2.20;;;9.40;1.00;;;;;;5018190;28;20509;-48
2023/03/16 09:50:39;;;;;;;7.23;2.57;;;9.40;1.00;;;;;;5022692;28;20524;-49
2023/03/16 09:53:24;;;;;;;7.20;2.80;;;9.70;1.00;;;;;;5024754;28;20503;-48
2023/03/16 09:55:56;;;;;;;6.43;1.57;;;9.70;1.00;;;;;;5021472;28;20576;-49
2023/03/16 09:58:22;;;;;;;2.53;1.80;;;9.70;1.00;;;;;;5021558;28;20812;-48
2023/03/16 10:01:13;;;;;;;4.37;1.73;;;9.70;1.00;;;;;;5017637;28;20445;-49
2023/03/16 10:04:03;;;;;;;11.90;2.10;;;9.60;1.00;;;;;;5021703;28;20189;-48
2023/03/16 10:06:30;;;;;;;6.53;1.80;;;9.60;1.00;;;;;;5017755;28;20451;-49
2023/03/16 10:09:26;;;;;;;4.43;1.80;;;9.70;1.00;;;;;;5021001;28;20499;-48
2023/03/16 10:11:56;;;;;;;4.23;1.87;;;9.70;1.00;;;;;;5017916;28;20453;-48
2023/03/16 10:14:34;;;;;;;5.90;1.80;;;9.40;1.00;;;;;;5017066;28;20520;-48
2023/03/16 10:17:17;;;;;;;5.47;1.93;;;9.50;1.00;;;;;;5017808;28;20456;-48
2023/03/16 10:19:56;;;;;;;7.40;2.20;;;9.70;1.00;;;;;;5017491;28;20793;-49
2023/03/16 10:22:25;;;;;;;5.83;1.80;;;9.60;1.00;;;;;;5017736;28;20473;-48
2023/03/16 10:25:24;;;;;;;6.40;1.80;;;9.50;1.00;;;;;;5019063;28;20838;-48
2023/03/16 10:27:51;;;;;;;5.57;1.80;;;9.70;1.00;;;;;;5021221;28;20450;-48
2023/03/16 10:30:27;;;;;;;3.93;1.50;;;10.00;1.00;;;;;;5021459;28;20500;-48
2023/03/16 10:32:54;;;;;;;4.63;1.80;;;10.20;1.00;;;;;;5016995;28;20453;-48
2023/03/16 10:35:41;;;;;;;3.47;1.50;;;10.40;1.00;;;;;;5021308;28;20450;-48
2023/03/16 10:38:08;;;;;;;7.20;2.00;;;10.30;1.00;;;;;;5024165;28;20444;-48
2023/03/16 10:40:38;;;;;;;4.00;1.53;;;10.50;1.00;;;;;;5018573;28;20441;-49
2023/03/16 10:43:05;;;;;;;5.60;1.73;;;10.50;1.00;;;;;;5021465;28;20449;-48
2023/03/16 10:45:34;;;;;;;2.97;1.50;;;10.40;1.00;;;;;;5016279;28;20481;-48
2023/03/16 10:48:27;;;;;;;3.73;1.33;;;10.30;1.00;;;;;;5016652;28;21240;-48
2023/03/16 10:50:56;;;;;;;3.57;1.30;;;10.50;1.00;;;;;;5016212;28;20453;-48
2023/03/16 10:53:33;;;;;;;2.93;1.50;;;10.60;1.00;;;;;;5019709;28;20449;-48
2023/03/16 10:56:01;;;;;;;4.47;1.47;;;10.70;1.00;;;;;;5016218;28;20471;-48
2023/03/16 10:58:32;;;;;;;1.70;1.17;;;11.10;1.00;;;;;;5016651;28;20809;-48
2023/03/16 11:00:58;;;;;;;5.13;1.50;;;11.80;1.00;;;;;;5019899;28;20458;-48
2023/03/16 11:03:32;;;;;;;5.90;1.50;;;12.50;1.00;;;;;;5017340;28;20794;-48
2023/03/16 11:06:03;;;;;;;2.63;1.50;;;12.80;1.00;;;;;;5020774;28;20512;-49
2023/03/16 11:08:47;;;;;;;2.17;1.10;;;13.10;1.00;;;;;;5023090;28;20554;-48
2023/03/16 11:11:17;;;;;;;3.83;1.20;;;13.00;1.00;;;;;;5016527;28;20476;-49
2023/03/16 11:13:45;;;;;;;3.60;1.10;;;13.00;1.00;;;;;;5022549;28;20456;-48
2023/03/16 11:16:15;;;;;;;1.70;1.43;;;13.20;1.00;;;;;;5023264;28;21008;-49
2023/03/16 11:18:44;;;;;;;6.37;1.27;;;13.50;1.00;;;;;;5020277;28;20890;-49
2023/03/16 11:21:45;;;;;;;3.83;1.20;;;13.60;1.00;;;;;;5022166;28;20438;-49
2023/03/16 11:24:24;;;;;;;8.20;1.73;;;13.10;1.00;;;;;;5015982;28;21059;-49
2023/03/16 11:26:56;;;;;;;5.90;1.60;;;12.70;1.00;;;;;;5021445;28;20529;-48
2023/03/16 11:29:40;;;;;;;2.97;1.50;;;13.00;1.00;;;;;;5016127;28;20532;-49
2023/03/16 11:32:12;;;;;;;4.20;1.30;;;13.30;1.00;;;;;;5020660;28;20591;-49
2023/03/16 11:34:38;;;;;;;5.17;1.50;;;13.60;1.00;;;;;;5016425;28;20441;-49
2023/03/16 11:37:22;;;;;;;2.87;1.60;;;13.90;1.00;;;;;;5016434;28;20432;-49
2023/03/16 11:40:25;;;;;;;4.47;1.67;;;14.10;1.00;;;;;;5016273;28;20285;-50
2023/03/16 11:43:13;;;;;;;6.30;1.70;;;13.50;1.00;;;;;;5024873;28;21030;-49
2023/03/16 11:46:02;;;;;;;4.70;1.20;;;12.70;1.00;;;;;;5021536;28;20489;-49
2023/03/16 11:48:35;;;;;;;2.13;1.20;;;12.50;1.00;;;;;;5020839;28;20479;-48
2023/03/16 11:51:20;;;;;;;3.97;1.33;;;12.60;1.00;;;;;;5015801;28;20450;-49
2023/03/16 11:53:55;;;;;;;2.60;1.30;;;13.20;1.00;;;;;;5019774;28;20488;-48
2023/03/16 11:56:26;;;;;;;3.93;1.50;;;13.90;1.00;;;;;;5019561;28;20803;-49
2023/03/16 11:58:51;;;;;;;3.63;1.43;;;13.60;1.00;;;;;;5016611;28;20465;-49
2023/03/16 12:01:38;;;;;;;7.27;1.90;;;13.20;1.00;;;;;;5015813;28;20438;-49
2023/03/16 12:04:29;;;;;;;3.00;1.40;;;13.30;1.00;;;;;;5019314;28;20225;-49
2023/03/16 12:07:10;;;;;;;6.20;1.30;;;13.50;1.00;;;;;;5023486;28;20533;-49
2023/03/16 12:09:54;;;;;;;5.37;1.30;;;13.90;1.00;;;;;;5019596;28;20478;-49
2023/03/16 12:12:31;;;;;;;2.50;1.10;;;14.00;1.00;;;;;;5019505;28;20442;-49
2023/03/16 12:15:07;;;;;;;4.00;1.60;;;14.90;1.00;;;;;;5019814;28;20472;-49
2023/03/16 12:17:36;;;;;;;10.30;1.50;;;15.20;1.00;;;;;;5020095;28;20930;-49
2023/03/16 12:20:12;;;;;;;2.87;1.40;;;14.60;1.00;;;;;;5019503;28;20809;-49
2023/03/16 12:22:43;;;;;;;9.40;1.37;;;13.90;1.00;;;;;;5024330;28;21106;-49
2023/03/16 12:25:20;;;;;;;7.80;1.30;;;13.20;1.00;;;;;;5019409;28;20811;-49
2023/03/16 12:27:49;;;;;;;3.83;1.03;;;12.70;1.00;;;;;;5023066;28;20451;-49
2023/03/16 12:30:34;;;;;;;1.53;0.90;;;12.20;1.00;;;;;;5023230;28;20476;-49
2023/03/16 12:33:17;;;;;;;4.20;1.40;;;12.70;1.00;;;;;;5021217;28;20498;-49
2023/03/16 12:35:51;;;;;;;5.73;1.30;;;13.50;1.00;;;;;;5020063;28;20460;-49
2023/03/16 12:38:17;;;;;;;2.53;1.10;;;14.20;1.00;;;;;;5023307;28;20449;-49
2023/03/16 12:41:11;;;;;;;3.33;1.40;;;14.70;1.00;;;;;;5022816;28;20921;-49
2023/03/16 12:44:06;;;;;;;2.97;1.10;;;15.10;1.00;;;;;;5022771;28;20449;-49
2023/03/16 12:46:41;;;;;;;5.37;1.80;;;15.60;1.00;;;;;;5019174;28;20595;-49
2023/03/16 12:49:07;;;;;;;1.97;1.10;;;15.90;1.00;;;;;;5018859;28;20467;-49
2023/03/16 12:51:35;;;;;;;2.23;0.90;;;15.70;1.00;;;;;;5018885;28;20472;-50
2023/03/16 12:54:01;;;;;;;5.30;1.50;;;15.40;1.00;;;;;;5022413;28;20971;-49
2023/03/16 12:56:33;;;;;;;3.90;1.10;;;14.80;1.00;;;;;;5019667;28;20446;-49
2023/03/16 12:59:02;;;;;;;2.93;1.23;;;14.60;1.00;;;;;;5025501;28;20444;-49
2023/03/16 13:01:42;;;;;;;3.47;1.10;;;14.30;1.00;;;;;;5026235;28;20509;-49
2023/03/16 13:04:31;;;;;;;1.77;0.93;;;13.90;1.00;;;;;;5022977;28;20448;-50